createdAt,value
2023-09-24T00:04:13.778Z,9.06
2023-09-24T00:09:32.127Z,9.06
2023-09-24T00:14:50.714Z,9.06
2023-09-24T00:20:09.353Z,8.94
2023-09-24T00:25:27.767Z,8.94
2023-09-24T00:30:45.951Z,8.88
2023-09-24T00:36:04.300Z,8.81
2023-09-24T00:41:22.664Z,8.75
2023-09-24T00:46:41.244Z,8.75
2023-09-24T00:51:59.890Z,8.69
2023-09-24T00:57:18.195Z,8.63
2023-09-24T01:02:36.751Z,8.56
2023-09-24T01:07:55.368Z,8.56
2023-09-24T01:13:14.074Z,8.56
2023-09-24T01:18:32.437Z,8.5
2023-09-24T01:28:54.547Z,8.44
2023-09-24T01:34:13.028Z,8.44
2023-09-24T01:39:31.453Z,8.38
2023-09-24T01:44:50.258Z,8.31
2023-09-24T01:55:12.640Z,8.25
2023-09-24T02:00:31.461Z,8.13
2023-09-24T02:05:49.768Z,8.19
2023-09-24T02:11:08.166Z,8.13
2023-09-24T02:16:26.707Z,8.19
2023-09-24T02:21:45.430Z,8.19
2023-09-24T02:27:04.104Z,8.19
2023-09-24T02:32:22.810Z,8.13
2023-09-24T02:37:41.449Z,8.06
2023-09-24T02:43:00.179Z,7.94
2023-09-24T02:48:19.036Z,7.87
2023-09-24T02:53:37.628Z,7.94
2023-09-24T02:58:56.977Z,7.87
2023-09-24T03:04:15.426Z,7.94
2023-09-24T03:09:34.085Z,7.81
2023-09-24T03:14:52.829Z,7.75
2023-09-24T03:20:11.606Z,7.69
2023-09-24T03:25:29.897Z,7.62
2023-09-24T03:30:48.064Z,7.56
2023-09-24T03:36:06.770Z,7.56
2023-09-24T03:41:25.670Z,7.5
2023-09-24T03:46:44.030Z,7.56
2023-09-24T03:52:02.345Z,7.62
2023-09-24T03:57:20.628Z,7.5
2023-09-24T04:02:39.440Z,7.44
2023-09-24T04:07:57.939Z,7.37
2023-09-24T04:13:16.364Z,7.37
2023-09-24T04:18:34.891Z,7.31
2023-09-24T04:23:53.322Z,7.31
2023-09-24T04:29:11.853Z,7.25
2023-09-24T04:39:34.065Z,7.19
2023-09-24T04:44:52.323Z,7.19
2023-09-24T04:50:10.479Z,7.12
2023-09-24T04:55:28.848Z,7.19
2023-09-24T05:00:47.201Z,7.19
2023-09-24T05:06:06.015Z,7.06
2023-09-24T05:11:24.291Z,7.12
2023-09-24T05:16:42.590Z,7.12
2023-09-24T05:22:01.280Z,7.12
2023-09-24T05:27:19.602Z,7.19
2023-09-24T05:32:37.932Z,7.19
2023-09-24T05:37:56.088Z,7.19
2023-09-24T05:43:14.575Z,7.19
2023-09-24T05:48:32.796Z,7.25
2023-09-24T05:53:51.341Z,7.31
2023-09-24T05:59:09.660Z,7.37
2023-09-24T06:04:28.432Z,7.56
2023-09-24T06:09:47.166Z,7.69
2023-09-24T06:15:06.184Z,7.81
2023-09-24T06:20:24.884Z,7.94
2023-09-24T06:25:43.792Z,8.13
2023-09-24T06:31:02.429Z,8.31
2023-09-24T06:36:21.399Z,8.5
2023-09-24T06:41:39.711Z,8.69
2023-09-24T06:46:58.448Z,8.88
2023-09-24T06:52:17.051Z,9.06
2023-09-24T06:57:35.839Z,9.25
2023-09-24T07:02:54.376Z,9.56
2023-09-24T07:08:12.645Z,9.94
2023-09-24T07:13:31.376Z,10.25
2023-09-24T07:18:49.946Z,10.56
2023-09-24T07:24:08.737Z,10.94
2023-09-24T07:29:27.244Z,11.19
2023-09-24T07:34:46.025Z,11.5
2023-09-24T07:40:04.448Z,11.69
2023-09-24T07:45:23.306Z,12
2023-09-24T07:50:42.001Z,12.25
2023-09-24T07:56:00.722Z,12.5
2023-09-24T08:01:19.179Z,12.88
2023-09-24T08:06:38.207Z,13.13
2023-09-24T08:11:56.878Z,13.31
2023-09-24T08:17:15.485Z,13.56
2023-09-24T08:22:34.301Z,13.88
2023-09-24T08:27:53.233Z,14.31
2023-09-24T08:33:11.658Z,14.75
2023-09-24T08:38:30.484Z,15.25
2023-09-24T08:43:49.398Z,16
2023-09-24T08:49:07.664Z,16.94
2023-09-24T08:54:26.115Z,19.62
2023-09-24T08:59:44.342Z,20.62
2023-09-24T09:05:02.915Z,24.75
2023-09-24T09:10:21.696Z,21.06
2023-09-24T09:15:39.933Z,21.19
2023-09-24T09:20:58.629Z,23.12
2023-09-24T09:31:16.125Z,24.69
2023-09-24T09:36:34.666Z,28.25
2023-09-24T09:41:53.466Z,28.75
2023-09-24T09:47:11.482Z,31.44
2023-09-24T09:52:30.192Z,34.13
2023-09-24T09:57:49.018Z,31.37
2023-09-24T10:03:07.792Z,26.5
2023-09-24T10:08:26.436Z,24.31
2023-09-24T10:13:45.285Z,23.81
2023-09-24T10:19:03.371Z,23.12
2023-09-24T10:24:21.691Z,22
2023-09-24T10:29:40.158Z,21.75
2023-09-24T10:45:04.371Z,22.81
2023-09-24T10:50:22.910Z,22.69
2023-09-24T10:55:41.282Z,22.87
2023-09-24T11:00:59.042Z,25.12
2023-09-24T11:06:17.049Z,32.69
2023-09-24T11:11:35.770Z,31.62
2023-09-24T11:16:54.012Z,31.87
2023-09-24T11:22:12.401Z,27.31
2023-09-24T11:27:30.928Z,28.81
2023-09-24T11:32:49.485Z,33.31
2023-09-24T11:38:07.824Z,34.44
2023-09-24T11:43:26.103Z,35.19
2023-09-24T11:48:44.997Z,32.31
2023-09-24T11:54:03.277Z,27.75
2023-09-24T11:59:20.692Z,24.81
2023-09-24T12:04:38.688Z,23.44
2023-09-24T12:09:57.141Z,22.25
2023-09-24T12:15:15.853Z,21.31
2023-09-24T12:20:33.954Z,20.69
2023-09-24T12:25:52.893Z,21.37
2023-09-24T12:31:11.704Z,21.37
2023-09-24T12:36:31.033Z,22.69
2023-09-24T12:41:49.977Z,23.69
2023-09-24T12:47:08.681Z,23.81
2023-09-24T12:52:27.414Z,24.19
2023-09-24T12:57:46.044Z,23.75
2023-09-24T13:03:04.824Z,23.44
2023-09-24T13:08:23.243Z,24
2023-09-24T13:13:41.673Z,24.19
2023-09-24T13:19:02.388Z,24.12
2023-09-24T13:24:18.914Z,23.62
2023-09-24T13:29:37.199Z,23.56
2023-09-24T13:34:55.761Z,24.25
2023-09-24T13:40:26.934Z,23.38
2023-09-24T13:45:32.972Z,23.06
2023-09-24T13:50:51.567Z,23.44
2023-09-24T13:56:10.131Z,23
2023-09-24T14:01:28.682Z,23.56
2023-09-24T14:06:46.593Z,23.44
2023-09-24T14:12:05.001Z,23.94
2023-09-24T14:17:23.584Z,23.44
2023-09-24T14:22:41.857Z,23.38
2023-09-24T14:28:00.224Z,23.44
2023-09-24T14:33:18.747Z,23.94
2023-09-24T14:38:37.351Z,23.56
2023-09-24T14:43:55.754Z,23.25
2023-09-24T14:49:14.298Z,23.44
2023-09-24T14:54:32.405Z,23.06
2023-09-24T14:59:50.942Z,23
2023-09-24T15:05:09.774Z,22.81
2023-09-24T15:10:28.262Z,22.75
2023-09-24T15:15:46.945Z,22.19
2023-09-24T15:21:05.400Z,21.56
2023-09-24T15:26:23.953Z,21.37
2023-09-24T15:31:42.614Z,21.12
2023-09-24T15:41:59.841Z,20.75
2023-09-24T15:47:18.485Z,20.44
2023-09-24T15:52:36.908Z,20.31
2023-09-24T15:57:55.145Z,19.87
2023-09-24T16:03:13.901Z,19.62
2023-09-24T16:08:32.217Z,19.19
2023-09-24T16:13:50.954Z,19
2023-09-24T16:19:09.278Z,18.75
2023-09-24T16:24:27.828Z,18.37
2023-09-24T16:29:46.200Z,18.19
2023-09-24T16:35:04.812Z,18
2023-09-24T16:40:23.375Z,17.62
2023-09-24T16:45:41.660Z,17.44
2023-09-24T16:51:01.331Z,17.12
2023-09-24T16:56:18.295Z,16.94
2023-09-24T17:01:36.784Z,16.62
2023-09-24T17:06:55.072Z,16.44
2023-09-24T17:12:13.647Z,16.31
2023-09-24T17:17:32.135Z,16.12
2023-09-24T17:22:50.789Z,15.88
2023-09-24T17:28:09.524Z,15.69
2023-09-24T17:33:27.742Z,15.5
2023-09-24T17:38:46.425Z,15.31
2023-09-24T17:44:04.927Z,15.13
2023-09-24T17:49:23.552Z,14.87
2023-09-24T17:54:41.766Z,14.75
2023-09-24T17:59:59.949Z,14.63
2023-09-24T18:05:18.243Z,14.44
2023-09-24T18:10:36.759Z,14.31
2023-09-24T18:15:55.089Z,14.13
2023-09-24T18:21:13.332Z,13.94
2023-09-24T18:26:31.925Z,13.81
2023-09-24T18:31:50.505Z,13.69
2023-09-24T18:37:09.016Z,13.56
2023-09-24T18:42:27.813Z,13.5
2023-09-24T18:47:46.041Z,13.38
2023-09-24T18:53:04.737Z,13.25
2023-09-24T18:58:23.433Z,13.19
2023-09-24T19:03:41.884Z,13.06
2023-09-24T19:08:59.993Z,13
2023-09-24T19:14:18.503Z,12.88
2023-09-24T19:19:37.092Z,12.88
2023-09-24T19:24:55.781Z,12.88
2023-09-24T19:30:14.298Z,12.88
2023-09-24T19:35:32.487Z,12.81
2023-09-24T19:40:51.165Z,12.75
2023-09-24T19:46:09.552Z,12.69
2023-09-24T19:51:28.440Z,12.56
2023-09-24T19:56:47.383Z,12.5
2023-09-24T20:02:05.865Z,12.37
2023-09-24T20:07:24.399Z,12.31
2023-09-24T20:12:43.312Z,12.25
2023-09-24T20:18:02.008Z,12.25
2023-09-24T20:23:20.637Z,12.19
2023-09-24T20:28:47.471Z,12.13
2023-09-24T20:34:01.179Z,12.13
2023-09-24T20:39:16.035Z,12.06
2023-09-24T20:44:34.733Z,11.94
2023-09-24T20:49:53.414Z,11.88
2023-09-24T20:55:12.091Z,11.75
2023-09-24T21:00:30.522Z,11.69
2023-09-24T21:05:49.028Z,11.56
2023-09-24T21:11:07.286Z,11.5
2023-09-24T21:16:25.613Z,11.38
2023-09-24T21:21:44.019Z,11.31
2023-09-24T21:27:02.699Z,11.19
2023-09-24T21:32:21.283Z,11.12
2023-09-24T21:37:40.009Z,11
2023-09-24T21:42:58.721Z,10.94
2023-09-24T21:58:14.397Z,10.81
2023-09-24T22:03:33.507Z,10.81
2023-09-24T22:08:51.814Z,10.75
2023-09-24T22:14:10.061Z,10.69
2023-09-24T22:19:28.616Z,10.63
2023-09-24T22:24:47.385Z,10.5
2023-09-24T22:30:05.699Z,10.56
2023-09-24T22:35:24.265Z,10.44
2023-09-24T22:40:42.950Z,10.38
2023-09-24T22:46:01.676Z,10.38
2023-09-24T22:51:19.913Z,10.31
2023-09-24T22:56:38.427Z,10.25
2023-09-24T23:01:56.968Z,10.19
2023-09-24T23:07:15.464Z,10.13
2023-09-24T23:12:34.280Z,10.06
2023-09-24T23:17:52.876Z,10
2023-09-24T23:23:11.539Z,10
2023-09-24T23:28:30.156Z,9.88
2023-09-24T23:33:48.809Z,9.81
2023-09-24T23:39:07.384Z,9.75
2023-09-24T23:44:26.106Z,9.69
2023-09-24T23:49:44.656Z,9.63
2023-09-24T23:55:03.489Z,9.63
